createdAt,value
2023-01-17T00:01:24.884Z,2.13
2023-01-17T00:12:49.426Z,2.11
2023-01-17T00:18:12.511Z,2.10
2023-01-17T00:23:55.973Z,2.14
2023-01-17T00:29:17.336Z,2.14
2023-01-17T00:34:38.810Z,2.13
2023-01-17T00:40:00.170Z,2.12
2023-01-17T00:45:41.621Z,2.13
2023-01-17T00:51:21.936Z,2.13
2023-01-17T00:56:55.731Z,2.16
2023-01-17T01:02:36.692Z,2.18
2023-01-17T01:08:17.838Z,2.19
2023-01-17T01:14:02.366Z,2.22
2023-01-17T01:19:43.427Z,2.23
2023-01-17T01:25:24.196Z,2.24
2023-01-17T01:31:04.050Z,2.26
2023-01-17T01:36:28.455Z,2.28
2023-01-17T01:41:50.748Z,2.29
2023-01-17T01:47:14.513Z,2.30
2023-01-17T01:52:40.400Z,2.32
2023-01-17T01:58:07.539Z,2.31
2023-01-17T02:03:36.640Z,2.33
2023-01-17T02:09:00.701Z,2.32
2023-01-17T02:14:25.730Z,2.27
2023-01-17T02:20:15.535Z,2.24
2023-01-17T02:25:56.056Z,2.20
2023-01-17T02:31:34.778Z,2.15
2023-01-17T02:37:23.161Z,2.12
2023-01-17T02:42:49.807Z,2.08
2023-01-17T02:48:12.387Z,2.07
2023-01-17T02:53:43.381Z,2.04
2023-01-17T02:59:21.927Z,2.06
2023-01-17T03:05:01.190Z,2.03
2023-01-17T03:10:26.087Z,2.04
2023-01-17T03:15:48.659Z,2.06
2023-01-17T03:21:11.643Z,2.05
2023-01-17T03:26:34.691Z,2.04
2023-01-17T03:31:57.145Z,2.04
2023-01-17T03:37:19.462Z,2.05
2023-01-17T03:42:41.741Z,2.06
2023-01-17T03:48:04.757Z,2.07
2023-01-17T03:53:27.085Z,2.07
2023-01-17T03:58:49.389Z,2.09
2023-01-17T04:04:12.260Z,2.10
2023-01-17T04:09:36.007Z,2.12
2023-01-17T04:14:58.878Z,2.13
2023-01-17T04:20:23.338Z,2.14
2023-01-17T04:25:46.901Z,2.17
2023-01-17T04:31:12.884Z,2.20
2023-01-17T04:36:35.928Z,2.25
2023-01-17T04:41:58.678Z,2.27
2023-01-17T04:47:21.204Z,2.27
2023-01-17T04:52:43.439Z,2.30
2023-01-17T04:58:07.036Z,2.33
2023-01-17T05:03:31.527Z,2.31
2023-01-17T05:08:54.300Z,2.31
2023-01-17T05:14:18.831Z,2.34
2023-01-17T05:19:51.708Z,2.44
2023-01-17T05:25:14.134Z,2.34
2023-01-17T05:30:38.162Z,2.31
2023-01-17T05:36:00.594Z,2.22
2023-01-17T05:41:30.624Z,2.16
2023-01-17T05:46:47.020Z,2.01
2023-01-17T05:52:10.181Z,1.97
2023-01-17T05:57:32.609Z,1.97
2023-01-17T06:02:56.017Z,1.97
2023-01-17T06:08:18.637Z,1.93
2023-01-17T06:13:40.884Z,1.93
2023-01-17T06:19:03.093Z,1.91
2023-01-17T06:24:25.966Z,1.89
2023-01-17T06:29:48.571Z,1.87
2023-01-17T06:35:11.105Z,1.84
2023-01-17T06:40:34.930Z,1.85
2023-01-17T06:45:57.199Z,1.87
2023-01-17T06:51:20.426Z,1.85
2023-01-17T06:56:45.966Z,1.83
2023-01-17T07:02:08.213Z,1.78
2023-01-17T07:07:33.723Z,1.67
2023-01-17T07:12:56.293Z,1.61
2023-01-17T07:18:21.586Z,1.63
2023-01-17T07:23:44.179Z,1.61
2023-01-17T07:29:06.421Z,1.53
2023-01-17T07:34:28.960Z,1.51
2023-01-17T07:39:51.381Z,1.58
2023-01-17T07:45:14.208Z,1.66
2023-01-17T07:50:36.702Z,1.67
2023-01-17T07:55:59.076Z,1.69
2023-01-17T08:01:27.720Z,1.75
2023-01-17T08:06:52.064Z,1.78
2023-01-17T08:12:14.555Z,1.79
2023-01-17T08:17:37.250Z,1.80
2023-01-17T08:23:01.165Z,1.84
2023-01-17T08:28:24.333Z,1.86
2023-01-17T08:33:46.562Z,1.89
2023-01-17T08:39:09.355Z,1.91
2023-01-17T08:44:31.794Z,1.91
2023-01-17T08:49:54.424Z,1.92
2023-01-17T08:55:17.633Z,1.93
2023-01-17T09:00:40.774Z,1.99
2023-01-17T09:06:13.158Z,2.03
2023-01-17T09:11:36.083Z,2.13
2023-01-17T09:17:00.081Z,2.14
2023-01-17T09:22:24.419Z,2.14
2023-01-17T09:27:47.175Z,2.13
2023-01-17T09:33:15.580Z,2.18
2023-01-17T09:38:38.564Z,2.21
2023-01-17T09:44:21.662Z,2.27
2023-01-17T09:49:58.729Z,2.37
2023-01-17T09:55:22.939Z,2.41
2023-01-17T10:01:19.288Z,2.50
2023-01-17T10:07:22.727Z,2.60
2023-01-17T10:13:24.527Z,2.70
2023-01-17T10:19:19.981Z,2.84
2023-01-17T10:24:47.118Z,2.91
2023-01-17T10:30:19.557Z,3.02
2023-01-17T10:35:45.344Z,3.24
2023-01-17T10:41:19.116Z,3.81
2023-01-17T10:47:18.683Z,4.09
2023-01-17T10:52:46.037Z,3.99
2023-01-17T10:58:10.850Z,3.99
2023-01-17T11:03:35.131Z,3.97
2023-01-17T11:09:13.427Z,3.93
2023-01-17T11:14:40.709Z,3.90
2023-01-17T11:20:13.951Z,3.91
2023-01-17T11:25:42.031Z,3.98
2023-01-17T11:31:24.401Z,3.98
2023-01-17T11:36:49.402Z,4.07
2023-01-17T11:42:15.569Z,4.20
2023-01-17T11:47:38.538Z,4.29
2023-01-17T11:53:00.737Z,4.33
2023-01-17T11:58:25.127Z,4.30
2023-01-17T12:04:00.960Z,4.36
2023-01-17T12:09:40.855Z,4.40
2023-01-17T12:15:20.233Z,4.39
2023-01-17T12:27:17.153Z,4.60
2023-01-17T12:33:08.683Z,4.57
2023-01-17T12:38:48.108Z,4.58
2023-01-17T12:44:14.203Z,4.60
2023-01-17T12:50:16.319Z,4.59
2023-01-17T12:55:58.029Z,4.60
2023-01-17T13:01:43.666Z,5.07
2023-01-17T13:07:29.648Z,4.99
2023-01-17T13:12:54.410Z,4.87
2023-01-17T13:18:22.511Z,4.74
2023-01-17T13:24:15.243Z,4.84
2023-01-17T13:30:26.585Z,4.71
2023-01-17T13:36:15.541Z,4.71
2023-01-17T13:42:05.707Z,4.70
2023-01-17T13:47:37.552Z,4.69
2023-01-17T13:53:28.661Z,4.79
2023-01-17T13:59:10.708Z,4.59
2023-01-17T14:04:35.243Z,4.58
2023-01-17T14:10:04.227Z,4.58
2023-01-17T14:15:36.485Z,4.61
2023-01-17T14:21:04.119Z,4.58
2023-01-17T14:26:53.604Z,4.57
2023-01-17T14:32:24.643Z,4.57
2023-01-17T14:37:52.360Z,4.53
2023-01-17T14:43:28.459Z,4.55
2023-01-17T14:48:52.463Z,4.56
2023-01-17T14:54:24.226Z,4.54
2023-01-17T14:59:46.970Z,4.51
2023-01-17T15:05:11.273Z,4.55
2023-01-17T15:10:39.200Z,4.59
2023-01-17T15:16:10.566Z,4.55
2023-01-17T15:21:42.597Z,4.56
2023-01-17T15:27:05.243Z,4.51
2023-01-17T15:32:34.139Z,4.54
2023-01-17T15:38:01.942Z,4.49
2023-01-17T15:43:26.828Z,4.30
2023-01-17T15:48:56.265Z,4.22
2023-01-17T15:54:40.803Z,4.18
2023-01-17T16:00:32.845Z,4.22
2023-01-17T16:06:15.677Z,4.30
2023-01-17T16:11:37.996Z,4.22
2023-01-17T16:17:05.915Z,4.21
2023-01-17T16:22:29.716Z,4.25
2023-01-17T16:27:53.121Z,4.23
2023-01-17T16:33:18.206Z,4.14
2023-01-17T16:38:40.867Z,4.11
2023-01-17T16:44:11.323Z,4.11
2023-01-17T16:49:34.643Z,4.07
2023-01-17T16:54:56.921Z,4.10
2023-01-17T17:00:21.852Z,4.07
2023-01-17T17:05:46.003Z,4.09
2023-01-17T17:11:14.842Z,4.09
2023-01-17T17:16:45.592Z,4.01
2023-01-17T17:22:09.885Z,3.91
2023-01-17T17:27:32.947Z,3.79
2023-01-17T17:32:57.642Z,3.67
2023-01-17T17:38:28.454Z,3.52
2023-01-17T17:43:53.880Z,3.42
2023-01-17T17:49:17.457Z,3.32
2023-01-17T17:54:40.185Z,3.14
2023-01-17T18:00:02.853Z,3.04
2023-01-17T18:05:26.444Z,2.93
2023-01-17T18:10:49.470Z,2.83
2023-01-17T18:16:27.560Z,2.68
2023-01-17T18:21:53.921Z,2.46
2023-01-17T18:27:20.292Z,2.33
2023-01-17T18:32:45.513Z,2.20
2023-01-17T18:38:10.204Z,2.21
2023-01-17T18:43:33.664Z,2.08
2023-01-17T18:48:57.539Z,1.94
2023-01-17T18:54:20.829Z,1.64
2023-01-17T18:59:44.658Z,1.71
2023-01-17T19:05:12.360Z,1.84
2023-01-17T19:10:34.872Z,1.72
2023-01-17T19:15:57.150Z,1.48
2023-01-17T19:21:27.726Z,1.49
2023-01-17T19:26:51.439Z,1.46
2023-01-17T19:32:14.424Z,1.39
2023-01-17T19:37:37.005Z,1.29
2023-01-17T19:42:59.911Z,1.14
2023-01-17T19:48:22.771Z,0.65
2023-01-17T19:53:45.519Z,0.11
2023-01-17T19:59:09.608Z,-0.17
2023-01-17T20:04:31.983Z,-0.34
2023-01-17T20:09:54.227Z,-0.39
2023-01-17T20:15:17.014Z,-0.55
2023-01-17T20:20:56.404Z,-0.75
2023-01-17T20:26:13.635Z,-1.11
2023-01-17T20:31:39.174Z,-1.30
2023-01-17T20:37:02.498Z,-1.47
2023-01-17T20:42:24.747Z,-1.58
2023-01-17T20:47:47.317Z,-1.73
2023-01-17T20:53:10.903Z,-1.76
2023-01-17T20:58:34.389Z,-1.99
2023-01-17T21:03:58.915Z,-2.05
2023-01-17T21:09:23.338Z,-2.15
2023-01-17T21:14:48.549Z,-2.21
2023-01-17T21:20:13.103Z,-2.26
2023-01-17T21:25:35.427Z,-2.46
2023-01-17T21:30:58.036Z,-2.54
2023-01-17T21:36:27.278Z,-2.58
2023-01-17T21:41:53.588Z,-2.56
2023-01-17T21:47:16.232Z,-2.56
2023-01-17T21:52:38.528Z,-2.71
2023-01-17T21:58:18.542Z,-2.79
2023-01-17T22:03:41.643Z,-2.79
2023-01-17T22:09:04.939Z,-2.98
2023-01-17T22:14:27.625Z,-3.08
2023-01-17T22:19:49.934Z,-3.05
2023-01-17T22:25:12.472Z,-3.05
2023-01-17T22:30:35.005Z,-3.09
2023-01-17T22:36:05.239Z,-3.17
2023-01-17T22:41:32.325Z,-2.79
2023-01-17T22:46:55.008Z,-2.49
2023-01-17T22:52:17.355Z,-2.67
2023-01-17T22:57:39.866Z,-2.90
2023-01-17T23:03:02.170Z,-3.11
2023-01-17T23:08:25.354Z,-3.13
2023-01-17T23:13:47.854Z,-3.03
2023-01-17T23:19:22.854Z,-3.12
2023-01-17T23:24:45.588Z,-3.36
2023-01-17T23:30:07.898Z,-3.39
2023-01-17T23:35:32.552Z,-3.47
2023-01-17T23:41:14.823Z,-3.58
2023-01-17T23:46:38.381Z,-3.42
2023-01-17T23:52:00.622Z,-3.66
2023-01-17T23:57:23.049Z,-3.73
